Ellington Field Houston US
ICAO: KEFD
IATA: EFD
Category: Medium
Scheduled Services: No

Elevation: 32 ft
TransAlt. 18000 ft.

Airport Communications:
HOUSTON APP DEP:134.45
ATIS:135.575
GND:121.6
HOUSTON AIR:38.18
ARNG OPS:41
ANG OPS:142.2
COMD POST:142.2
TWR:126.05
UNICOM:122.95

KEFD Zoom In..

Runways:

(A) RW 04 length 8001 ft width 150 ft
---- / hdg 39

(B) RW 17L length 4609 ft width 80 ft
---- / hdg 174

(C) RW 17R length 9000 ft width 150 ft
ILS 110.30 / hdg 174

(D) RW 22 length 8001 ft width 150 ft
ILS 110.10 / hdg 219

(E) RW 35L length 9000 ft width 150 ft
ILS 111.10 / hdg 354

(F) RW 35R length 4609 ft width 80 ft
---- / hdg 354

Location; KEFD
Day. 23 / Time. 05.50 Zulu
* Altimeter: 29.90
* Temperature: 27° c. 80.6°f.
* Wind from: 220° Speed 07 kn.
Dewpoint: 25° c.
Visibility: 10 Statute Miles.
Clouds: Scattered 25000 ft.

KEFD 230550Z 22007KT 10SM SCT250 27/25 A2990


Wind From 220°
Speed 07 kn.

 
 
jpsmedia.com for Web Design worldairports.se 2018   terms of use